Tropical Cyclones
[Index]
Main Index Home Page Stock Weather Photos Extreme Storms Discussion Storm News and Storm Chasing Reports Tropical Cyclones / Hurricanes / Typhoons Weather Data and Links Wild Fires / Bushfires Weather Observation Techniques Weather Picture Catalogue Tornado Pictures and Reports Stock Video Footage and DVDs for sale
Season 1973-1974 Tropical Cyclone DEIDRE Track Map
Season 1973-1974 Summaries: [BoM-AU] [JTWC-AU] [JTWC-SIO] [JTWC-SPAC] [JTWC-SH]
<<- Previous TC | BoM 1973-1974 Season | Next TC ->>

click for intensity scale information  Lat/long Grid: Show Hide

 Date Labels: Show Hide

Bureau of Meteorology Tropical Cyclone Data

Name: DEIDRE
Number: 517 / 197374_07

20 Dec 1973 00:00 UTC to 26 Dec 1973 00:00 UTC

    date/time    lat    long    hPa   cat  kts
1973-12-20 00   10.0    98.0   1003                     
1973-12-20 03   10.2    98.0   1002                     
1973-12-20 06   10.5    97.9   1001                     
1973-12-20 09   10.8    97.8   1000                     
1973-12-20 12   11.1    97.7   1001                     
1973-12-20 15   11.4    97.6   1002                     
1973-12-20 18   11.6    97.5   1002                     
1973-12-20 21   11.7    97.4   1001                     
1973-12-21 00   11.8    97.3   1001                     
1973-12-21 03   11.8    97.2   1001                     
1973-12-21 06   11.9    97.0    998                     
1973-12-21 09   11.9    96.9    995    1                
1973-12-21 12   12.0    96.7    996                     
1973-12-21 15   12.0    96.5    996                     
1973-12-21 18   12.0    96.4    996                     
1973-12-21 21   11.9    96.3    994    1                
1973-12-22 00   11.9    96.1    992    1                
1973-12-22 03   11.8    95.9    991    1                
1973-12-22 06   11.8    95.7    988    1                
1973-12-22 09   11.7    95.4    985    2                
1973-12-22 12   11.7    95.0    985    2                
1973-12-22 15   11.6    94.6    985    2                
1973-12-22 18   11.8    93.9    986    1                
1973-12-22 21   12.0    93.2    985    2                
1973-12-23 00   12.2    92.5    985    2                
1973-12-23 03   12.4    92.0    984    2                
1973-12-23 06   12.5    91.5    985    2                
1973-12-23 09   12.7    91.0    981    2                
1973-12-23 12   12.8    90.5    981    2                
1973-12-23 15   13.0    90.0    981    2                
1973-12-23 18   13.1    89.5    981    2                
1973-12-23 21   13.3    89.0    981    2                
1973-12-24 00   13.4    88.4    981    2                
1973-12-24 03   13.6    87.9    980    2                
1973-12-24 06   13.7    87.4    978    2                
1973-12-24 09   13.9    86.8    976    2                
1973-12-24 12   14.0    86.2    975    2                
1973-12-24 15   14.2    85.6    974    2                
1973-12-24 18   14.4    85.0    973    2                
1973-12-24 21   14.6    84.4    973    2                
1973-12-25 00   14.8    83.8    973    2                
1973-12-25 03   14.9    83.2    972    2                
1973-12-25 06   15.1    82.6    970    3                
1973-12-25 09   15.3    82.0    967    3                
1973-12-25 12   15.5    81.5    967    3                
1973-12-25 15   15.6    81.0    966    3                
1973-12-25 18   15.7    80.5    966    3                
1973-12-25 21   15.8    80.0    965    3                
1973-12-26 00   15.8    79.5    964    3                
Winds are 10-min average.

Tropical cyclone tracks developed by Michael Bath using data from the Bureau of Meteorology and Google Maps.


[Australian Severe Weather index] [Copyright Notice] [Email Contacts] [Search This Site] [Privacy Policy]
Document: tropical_cyclone_deidre.htm Updated: 30 May 2013